Terminal Aerodrome Forecast
Issued by NWS Mt. Holly, NJ

Home | Current Version | Previous Version | Text Only | Print | Product List | Glossary On
Versions: 1 2 3 4 5 6 7 8 9 10 11 12 13 14 15 16 17 18 19 20 21 22 23 24 25 26 27 28 29 30 31 32 33
105
FTUS41 KPHI 262328
TAFPHL
TAF
KPHL 262328Z 2700/2806 30010KT P6SM FEW050
     FM270400 01005KT P6SM SCT250
     FM270900 02005KT P6SM BKN150
     FM271500 28005KT P6SM FEW050 BKN200
     FM271700 23008KT P6SM SCT050 BKN150
     FM272300 22005KT P6SM FEW050 BKN250=

USA.gov is the U.S. government's official web portal to all federal, state and local government web resources and services.